sensor_id;sensor_type;location;lat;lon;timestamp;pressure;altitude;pressure_sealevel;temperature;humidity
39739;BME280;25422;48.286;8.484;2023-04-20T00:02:17;93907.41;;;0.85;100.00
39739;BME280;25422;48.286;8.484;2023-04-20T00:04:42;93902.50;;;0.82;100.00
39739;BME280;25422;48.286;8.484;2023-04-20T00:07:07;93899.22;;;0.80;100.00
39739;BME280;25422;48.286;8.484;2023-04-20T00:09:33;93895.72;;;0.81;100.00
39739;BME280;25422;48.286;8.484;2023-04-20T00:11:58;93895.72;;;0.81;100.00
39739;BME280;25422;48.286;8.484;2023-04-20T00:14:24;93885.41;;;0.81;100.00
39739;BME280;25422;48.286;8.484;2023-04-20T00:16:50;93881.66;;;0.85;100.00
39739;BME280;25422;48.286;8.484;2023-04-20T00:19:15;93886.34;;;0.80;100.00
39739;BME280;25422;48.286;8.484;2023-04-20T00:21:41;93878.06;;;0.76;100.00
39739;BME280;25422;48.286;8.484;2023-04-20T00:24:07;93874.41;;;0.67;100.00
39739;BME280;25422;48.286;8.484;2023-04-20T00:26:33;93867.84;;;0.63;100.00
39739;BME280;25422;48.286;8.484;2023-04-20T00:28:58;93868.91;;;0.61;100.00
39739;BME280;25422;48.286;8.484;2023-04-20T00:31:23;93858.84;;;0.58;100.00
39739;BME280;25422;48.286;8.484;2023-04-20T00:33:49;93861.41;;;0.58;100.00
39739;BME280;25422;48.286;8.484;2023-04-20T00:36:15;93853.34;;;0.51;100.00
39739;BME280;25422;48.286;8.484;2023-04-20T00:38:40;93857.69;;;0.50;100.00
39739;BME280;25422;48.286;8.484;2023-04-20T00:41:06;93846.09;;;0.45;100.00
39739;BME280;25422;48.286;8.484;2023-04-20T00:43:31;93839.44;;;0.42;100.00
39739;BME280;25422;48.286;8.484;2023-04-20T00:45:57;93837.31;;;0.47;100.00
39739;BME280;25422;48.286;8.484;2023-04-20T00:48:23;93845.25;;;0.44;100.00
39739;BME280;25422;48.286;8.484;2023-04-20T00:50:49;93831.34;;;0.36;100.00
39739;BME280;25422;48.286;8.484;2023-04-20T00:53:15;93828.75;;;0.24;100.00
39739;BME280;25422;48.286;8.484;2023-04-20T00:55:43;93833.22;;;0.22;100.00
39739;BME280;25422;48.286;8.484;2023-04-20T00:58:10;93825.63;;;0.21;100.00
39739;BME280;25422;48.286;8.484;2023-04-20T01:00:37;93823.84;;;0.10;100.00
39739;BME280;25422;48.286;8.484;2023-04-20T01:03:04;93815.28;;;0.09;100.00
39739;BME280;25422;48.286;8.484;2023-04-20T01:05:31;93816.13;;;0.10;100.00
39739;BME280;25422;48.286;8.484;2023-04-20T01:07:57;93827.09;;;0.12;100.00
39739;BME280;25422;48.286;8.484;2023-04-20T01:10:22;93816.59;;;0.15;100.00
39739;BME280;25422;48.286;8.484;2023-04-20T01:12:48;93820.31;;;0.11;100.00
39739;BME280;25422;48.286;8.484;2023-04-20T01:15:13;93811.44;;;0.04;100.00
39739;BME280;25422;48.286;8.484;2023-04-20T01:17:39;93814.00;;;-0.08;100.00
39739;BME280;25422;48.286;8.484;2023-04-20T01:20:06;93805.06;;;-0.15;100.00
39739;BME280;25422;48.286;8.484;2023-04-20T01:22:40;93801.94;;;-0.19;100.00
39739;BME280;25422;48.286;8.484;2023-04-20T01:25:06;93800.66;;;-0.13;100.00
39739;BME280;25422;48.286;8.484;2023-04-20T01:27:33;93790.38;;;-0.13;100.00
39739;BME280;25422;48.286;8.484;2023-04-20T01:30:00;93793.19;;;-0.16;100.00
39739;BME280;25422;48.286;8.484;2023-04-20T01:32:26;93794.78;;;-0.15;100.00
39739;BME280;25422;48.286;8.484;2023-04-20T01:34:52;93785.94;;;-0.11;100.00
39739;BME280;25422;48.286;8.484;2023-04-20T01:37:18;93781.59;;;-0.10;100.00
39739;BME280;25422;48.286;8.484;2023-04-20T01:39:44;93787.44;;;-0.20;100.00
39739;BME280;25422;48.286;8.484;2023-04-20T01:42:11;93779.84;;;-0.21;100.00
39739;BME280;25422;48.286;8.484;2023-04-20T01:44:38;93773.97;;;-0.23;100.00
39739;BME280;25422;48.286;8.484;2023-04-20T01:47:04;93768.38;;;-0.28;100.00
39739;BME280;25422;48.286;8.484;2023-04-20T01:49:30;93767.66;;;-0.30;100.00
39739;BME280;25422;48.286;8.484;2023-04-20T01:51:57;93760.75;;;-0.30;100.00
39739;BME280;25422;48.286;8.484;2023-04-20T01:54:23;93755.28;;;-0.25;100.00
39739;BME280;25422;48.286;8.484;2023-04-20T01:56:49;93747.81;;;-0.17;100.00
39739;BME280;25422;48.286;8.484;2023-04-20T01:59:15;93744.66;;;-0.21;100.00
39739;BME280;25422;48.286;8.484;2023-04-20T02:01:42;93745.50;;;-0.20;100.00
39739;BME280;25422;48.286;8.484;2023-04-20T02:04:08;93744.88;;;-0.24;100.00
39739;BME280;25422;48.286;8.484;2023-04-20T02:06:34;93748.19;;;-0.22;100.00
39739;BME280;25422;48.286;8.484;2023-04-20T02:09:00;93752.03;;;-0.16;100.00
39739;BME280;25422;48.286;8.484;2023-04-20T02:11:27;93744.19;;;-0.14;100.00
39739;BME280;25422;48.286;8.484;2023-04-20T02:13:53;93751.91;;;-0.14;100.00
39739;BME280;25422;48.286;8.484;2023-04-20T02:16:19;93746.19;;;-0.18;100.00
39739;BME280;25422;48.286;8.484;2023-04-20T02:18:46;93742.19;;;-0.22;100.00
39739;BME280;25422;48.286;8.484;2023-04-20T02:21:13;93748.63;;;-0.28;100.00
39739;BME280;25422;48.286;8.484;2023-04-20T02:23:39;93740.44;;;-0.33;100.00
39739;BME280;25422;48.286;8.484;2023-04-20T02:26:05;93741.47;;;-0.36;100.00
39739;BME280;25422;48.286;8.484;2023-04-20T02:28:31;93731.56;;;-0.40;100.00
39739;BME280;25422;48.286;8.484;2023-04-20T02:30:58;93740.91;;;-0.39;100.00
39739;BME280;25422;48.286;8.484;2023-04-20T02:33:24;93734.00;;;-0.39;100.00
39739;BME280;25422;48.286;8.484;2023-04-20T02:35:52;93726.28;;;-0.39;100.00
39739;BME280;25422;48.286;8.484;2023-04-20T02:38:18;93723.72;;;-0.39;100.00
39739;BME280;25422;48.286;8.484;2023-04-20T02:40:44;93717.66;;;-0.38;100.00
39739;BME280;25422;48.286;8.484;2023-04-20T02:43:10;93720.34;;;-0.39;100.00
39739;BME280;25422;48.286;8.484;2023-04-20T02:45:38;93713.78;;;-0.43;100.00
39739;BME280;25422;48.286;8.484;2023-04-20T02:59:22;93698.69;;;-0.59;100.00
39739;BME280;25422;48.286;8.484;2023-04-20T03:01:57;93696.25;;;-0.61;100.00
39739;BME280;25422;48.286;8.484;2023-04-20T03:04:24;93692.16;;;-0.63;100.00
39739;BME280;25422;48.286;8.484;2023-04-20T03:06:58;93687.44;;;-0.70;100.00
39739;BME280;25422;48.286;8.484;2023-04-20T03:09:31;93674.25;;;-0.76;100.00
39739;BME280;25422;48.286;8.484;2023-04-20T03:12:17;93679.00;;;-0.83;100.00
39739;BME280;25422;48.286;8.484;2023-04-20T03:15:05;93676.91;;;-0.89;100.00
39739;BME280;25422;48.286;8.484;2023-04-20T03:18:00;93677.34;;;-0.95;100.00
39739;BME280;25422;48.286;8.484;2023-04-20T03:20:26;93670.91;;;-1.01;100.00
39739;BME280;25422;48.286;8.484;2023-04-20T03:22:52;93672.06;;;-1.05;100.00
39739;BME280;25422;48.286;8.484;2023-04-20T03:25:20;93676.03;;;-1.12;100.00
39739;BME280;25422;48.286;8.484;2023-04-20T03:28:15;93667.94;;;-1.19;100.00
39739;BME280;25422;48.286;8.484;2023-04-20T03:30:41;93660.69;;;-1.25;100.00
39739;BME280;25422;48.286;8.484;2023-04-20T03:33:12;93674.22;;;-1.23;100.00
39739;BME280;25422;48.286;8.484;2023-04-20T03:35:38;93673.19;;;-1.21;100.00
39739;BME280;25422;48.286;8.484;2023-04-20T03:38:04;93668.16;;;-1.22;100.00
39739;BME280;25422;48.286;8.484;2023-04-20T03:40:31;93673.28;;;-1.22;100.00
39739;BME280;25422;48.286;8.484;2023-04-20T03:42:56;93663.25;;;-1.25;100.00
39739;BME280;25422;48.286;8.484;2023-04-20T03:45:21;93662.19;;;-1.23;100.00
39739;BME280;25422;48.286;8.484;2023-04-20T03:47:48;93657.41;;;-1.27;100.00
39739;BME280;25422;48.286;8.484;2023-04-20T03:50:13;93654.13;;;-1.29;100.00
39739;BME280;25422;48.286;8.484;2023-04-20T03:52:40;93656.94;;;-1.32;100.00
39739;BME280;25422;48.286;8.484;2023-04-20T03:55:05;93659.50;;;-1.32;100.00
39739;BME280;25422;48.286;8.484;2023-04-20T03:57:32;93654.66;;;-1.37;100.00
39739;BME280;25422;48.286;8.484;2023-04-20T03:59:59;93656.44;;;-1.38;100.00
39739;BME280;25422;48.286;8.484;2023-04-20T04:02:32;93659.09;;;-1.39;100.00
39739;BME280;25422;48.286;8.484;2023-04-20T04:04:58;93654.31;;;-1.44;100.00
39739;BME280;25422;48.286;8.484;2023-04-20T04:07:24;93650.22;;;-1.46;100.00
39739;BME280;25422;48.286;8.484;2023-04-20T04:09:50;93652.19;;;-1.50;100.00
39739;BME280;25422;48.286;8.484;2023-04-20T04:12:16;93653.22;;;-1.53;100.00
39739;BME280;25422;48.286;8.484;2023-04-20T04:14:42;93656.69;;;-1.54;100.00
39739;BME280;25422;48.286;8.484;2023-04-20T04:17:10;93651.69;;;-1.55;100.00
39739;BME280;25422;48.286;8.484;2023-04-20T04:19:39;93648.44;;;-1.57;100.00
39739;BME280;25422;48.286;8.484;2023-04-20T04:22:04;93652.41;;;-1.53;100.00
39739;BME280;25422;48.286;8.484;2023-04-20T04:24:35;93658.34;;;-1.53;100.00
39739;BME280;25422;48.286;8.484;2023-04-20T04:27:05;93661.84;;;-1.54;100.00
39739;BME280;25422;48.286;8.484;2023-04-20T04:29:36;93672.72;;;-1.50;100.00
39739;BME280;25422;48.286;8.484;2023-04-20T04:32:06;93669.00;;;-1.46;100.00
39739;BME280;25422;48.286;8.484;2023-04-20T04:34:32;93669.22;;;-1.49;100.00
39739;BME280;25422;48.286;8.484;2023-04-20T04:36:59;93667.03;;;-1.42;100.00
39739;BME280;25422;48.286;8.484;2023-04-20T04:39:37;93663.97;;;-1.47;100.00
39739;BME280;25422;48.286;8.484;2023-04-20T04:42:11;93667.22;;;-1.45;100.00
39739;BME280;25422;48.286;8.484;2023-04-20T04:44:40;93662.72;;;-1.42;100.00
39739;BME280;25422;48.286;8.484;2023-04-20T04:47:08;93658.19;;;-1.38;100.00
39739;BME280;25422;48.286;8.484;2023-04-20T04:49:34;93659.09;;;-1.39;100.00
39739;BME280;25422;48.286;8.484;2023-04-20T04:52:02;93657.03;;;-1.34;100.00
39739;BME280;25422;48.286;8.484;2023-04-20T04:54:27;93664.63;;;-1.32;100.00
39739;BME280;25422;48.286;8.484;2023-04-20T04:56:53;93663.69;;;-1.31;100.00
39739;BME280;25422;48.286;8.484;2023-04-20T04:59:18;93669.53;;;-1.29;100.00
39739;BME280;25422;48.286;8.484;2023-04-20T05:01:44;93670.72;;;-1.22;100.00
39739;BME280;25422;48.286;8.484;2023-04-20T05:04:09;93657.09;;;-1.11;100.00
39739;BME280;25422;48.286;8.484;2023-04-20T05:06:35;93670.09;;;-1.02;100.00
39739;BME280;25422;48.286;8.484;2023-04-20T05:09:00;93677.81;;;-0.90;100.00
39739;BME280;25422;48.286;8.484;2023-04-20T05:11:25;93668.28;;;-0.88;100.00
39739;BME280;25422;48.286;8.484;2023-04-20T05:13:51;93672.13;;;-0.82;100.00
39739;BME280;25422;48.286;8.484;2023-04-20T05:16:17;93673.31;;;-0.75;100.00
39739;BME280;25422;48.286;8.484;2023-04-20T05:18:42;93671.66;;;-0.76;100.00
39739;BME280;25422;48.286;8.484;2023-04-20T05:21:07;93679.16;;;-0.73;100.00
39739;BME280;25422;48.286;8.484;2023-04-20T05:23:33;93674.13;;;-0.75;100.00
39739;BME280;25422;48.286;8.484;2023-04-20T05:25:58;93667.56;;;-0.79;100.00
39739;BME280;25422;48.286;8.484;2023-04-20T05:28:24;93676.22;;;-0.80;100.00
39739;BME280;25422;48.286;8.484;2023-04-20T05:30:49;93671.47;;;-0.73;100.00
39739;BME280;25422;48.286;8.484;2023-04-20T05:33:15;93671.34;;;-0.72;100.00
39739;BME280;25422;48.286;8.484;2023-04-20T05:35:40;93671.59;;;-0.63;100.00
39739;BME280;25422;48.286;8.484;2023-04-20T05:38:06;93671.84;;;-0.55;100.00
39739;BME280;25422;48.286;8.484;2023-04-20T05:40:32;93669.75;;;-0.39;100.00
39739;BME280;25422;48.286;8.484;2023-04-20T05:43:00;93660.75;;;-0.22;100.00
39739;BME280;25422;48.286;8.484;2023-04-20T05:45:26;93655.03;;;-0.03;100.00
39739;BME280;25422;48.286;8.484;2023-04-20T05:47:52;93653.38;;;0.19;100.00
39739;BME280;25422;48.286;8.484;2023-04-20T05:50:18;93647.34;;;0.41;100.00
39739;BME280;25422;48.286;8.484;2023-04-20T05:52:43;93654.97;;;0.31;100.00
39739;BME280;25422;48.286;8.484;2023-04-20T05:55:09;93649.50;;;0.13;100.00
39739;BME280;25422;48.286;8.484;2023-04-20T05:57:34;93654.88;;;0.10;100.00
39739;BME280;25422;48.286;8.484;2023-04-20T06:00:11;93655.47;;;0.14;100.00
39739;BME280;25422;48.286;8.484;2023-04-20T06:02:40;93650.78;;;0.19;100.00
39739;BME280;25422;48.286;8.484;2023-04-20T06:05:07;93658.38;;;0.21;100.00
39739;BME280;25422;48.286;8.484;2023-04-20T06:07:33;93657.75;;;0.28;100.00
39739;BME280;25422;48.286;8.484;2023-04-20T06:09:59;93661.13;;;0.40;100.00
39739;BME280;25422;48.286;8.484;2023-04-20T06:12:26;93658.25;;;0.22;100.00
39739;BME280;25422;48.286;8.484;2023-04-20T06:14:52;93652.31;;;0.54;100.00
39739;BME280;25422;48.286;8.484;2023-04-20T06:17:17;93650.38;;;0.79;100.00
39739;BME280;25422;48.286;8.484;2023-04-20T06:19:42;93655.88;;;1.07;100.00
39739;BME280;25422;48.286;8.484;2023-04-20T06:22:08;93644.63;;;1.08;100.00
39739;BME280;25422;48.286;8.484;2023-04-20T06:24:34;93645.38;;;1.41;100.00
39739;BME280;25422;48.286;8.484;2023-04-20T06:27:00;93640.97;;;1.31;100.00
39739;BME280;25422;48.286;8.484;2023-04-20T06:29:27;93644.59;;;1.50;100.00
39739;BME280;25422;48.286;8.484;2023-04-20T06:31:52;93644.50;;;1.92;100.00
39739;BME280;25422;48.286;8.484;2023-04-20T06:34:18;93635.56;;;1.96;100.00
39739;BME280;25422;48.286;8.484;2023-04-20T06:36:43;93648.34;;;1.98;100.00
39739;BME280;25422;48.286;8.484;2023-04-20T06:39:09;93640.75;;;2.57;100.00
39739;BME280;25422;48.286;8.484;2023-04-20T06:41:36;93644.16;;;2.96;100.00
39739;BME280;25422;48.286;8.484;2023-04-20T06:44:04;93644.44;;;2.93;100.00
39739;BME280;25422;48.286;8.484;2023-04-20T06:46:30;93649.59;;;3.32;100.00
39739;BME280;25422;48.286;8.484;2023-04-20T06:48:56;93644.66;;;3.29;100.00
39739;BME280;25422;48.286;8.484;2023-04-20T06:51:23;93646.06;;;3.04;100.00
39739;BME280;25422;48.286;8.484;2023-04-20T06:53:49;93640.63;;;2.58;100.00
39739;BME280;25422;48.286;8.484;2023-04-20T06:56:14;93644.34;;;2.25;100.00
39739;BME280;25422;48.286;8.484;2023-04-20T06:58:39;93647.41;;;2.09;100.00
39739;BME280;25422;48.286;8.484;2023-04-20T07:01:05;93643.06;;;1.99;100.00
39739;BME280;25422;48.286;8.484;2023-04-20T07:03:30;93639.91;;;1.86;100.00
39739;BME280;25422;48.286;8.484;2023-04-20T07:05:56;93639.66;;;1.99;100.00
39739;BME280;25422;48.286;8.484;2023-04-20T07:08:21;93624.63;;;2.14;100.00
39739;BME280;25422;48.286;8.484;2023-04-20T07:10:47;93635.06;;;2.02;100.00
39739;BME280;25422;48.286;8.484;2023-04-20T07:13:12;93631.88;;;1.89;100.00
39739;BME280;25422;48.286;8.484;2023-04-20T07:15:37;93642.88;;;1.91;100.00
39739;BME280;25422;48.286;8.484;2023-04-20T07:18:03;93634.19;;;1.92;100.00
39739;BME280;25422;48.286;8.484;2023-04-20T07:20:28;93639.16;;;1.74;100.00
39739;BME280;25422;48.286;8.484;2023-04-20T07:22:54;93635.50;;;1.77;100.00
39739;BME280;25422;48.286;8.484;2023-04-20T07:25:19;93630.84;;;1.71;100.00
39739;BME280;25422;48.286;8.484;2023-04-20T07:27:45;93635.22;;;1.70;100.00
39739;BME280;25422;48.286;8.484;2023-04-20T07:30:11;93627.72;;;1.67;100.00
39739;BME280;25422;48.286;8.484;2023-04-20T07:32:38;93635.78;;;1.74;100.00
39739;BME280;25422;48.286;8.484;2023-04-20T07:35:04;93628.88;;;1.84;100.00
39739;BME280;25422;48.286;8.484;2023-04-20T07:37:30;93639.16;;;1.74;100.00
39739;BME280;25422;48.286;8.484;2023-04-20T07:39:58;93634.97;;;1.83;100.00
39739;BME280;25422;48.286;8.484;2023-04-20T07:42:24;93635.94;;;1.82;100.00
39739;BME280;25422;48.286;8.484;2023-04-20T07:44:49;93631.44;;;2.15;100.00
39739;BME280;25422;48.286;8.484;2023-04-20T07:47:15;93635.22;;;2.11;100.00
39739;BME280;25422;48.286;8.484;2023-04-20T07:49:41;93636.84;;;2.12;100.00
39739;BME280;25422;48.286;8.484;2023-04-20T07:52:07;93637.03;;;2.40;100.00
39739;BME280;25422;48.286;8.484;2023-04-20T07:54:32;93634.88;;;2.35;100.00
39739;BME280;25422;48.286;8.484;2023-04-20T07:56:58;93627.84;;;2.57;100.00
39739;BME280;25422;48.286;8.484;2023-04-20T07:59:24;93632.44;;;2.63;100.00
39739;BME280;25422;48.286;8.484;2023-04-20T08:01:49;93635.44;;;2.48;100.00
39739;BME280;25422;48.286;8.484;2023-04-20T08:04:15;93629.44;;;2.48;100.00
39739;BME280;25422;48.286;8.484;2023-04-20T08:06:41;93633.81;;;2.57;100.00
39739;BME280;25422;48.286;8.484;2023-04-20T08:09:07;93638.03;;;2.58;100.00
39739;BME280;25422;48.286;8.484;2023-04-20T08:11:32;93633.81;;;2.77;100.00
39739;BME280;25422;48.286;8.484;2023-04-20T08:13:58;93625.66;;;2.72;100.00
39739;BME280;25422;48.286;8.484;2023-04-20T08:16:23;93625.13;;;2.58;100.00
39739;BME280;25422;48.286;8.484;2023-04-20T08:18:49;93621.31;;;2.62;100.00
39739;BME280;25422;48.286;8.484;2023-04-20T08:21:15;93622.25;;;2.51;100.00
39739;BME280;25422;48.286;8.484;2023-04-20T08:23:41;93616.25;;;2.41;100.00
39739;BME280;25422;48.286;8.484;2023-04-20T08:26:06;93619.63;;;2.22;100.00
39739;BME280;25422;48.286;8.484;2023-04-20T08:28:32;93616.44;;;2.09;100.00
39739;BME280;25422;48.286;8.484;2023-04-20T08:30:57;93620.25;;;2.05;100.00
39739;BME280;25422;48.286;8.484;2023-04-20T08:33:23;93620.53;;;2.01;100.00
39739;BME280;25422;48.286;8.484;2023-04-20T08:35:51;93610.78;;;2.15;100.00
39739;BME280;25422;48.286;8.484;2023-04-20T08:38:17;93616.88;;;2.14;100.00
39739;BME280;25422;48.286;8.484;2023-04-20T08:40:43;93613.34;;;2.05;100.00
39739;BME280;25422;48.286;8.484;2023-04-20T08:43:08;93623.38;;;1.98;100.00
39739;BME280;25422;48.286;8.484;2023-04-20T08:45:34;93619.50;;;1.83;100.00
39739;BME280;25422;48.286;8.484;2023-04-20T08:48:05;93621.13;;;1.84;100.00
39739;BME280;25422;48.286;8.484;2023-04-20T08:50:32;93622.94;;;1.93;100.00
39739;BME280;25422;48.286;8.484;2023-04-20T08:52:58;93617.16;;;2.11;100.00
39739;BME280;25422;48.286;8.484;2023-04-20T08:55:23;93605.75;;;2.23;100.00
39739;BME280;25422;48.286;8.484;2023-04-20T08:57:49;93613.00;;;2.49;100.00
39739;BME280;25422;48.286;8.484;2023-04-20T09:00:14;93613.28;;;2.46;100.00
39739;BME280;25422;48.286;8.484;2023-04-20T09:02:54;93614.22;;;2.55;100.00
39739;BME280;25422;48.286;8.484;2023-04-20T09:05:30;93613.94;;;2.48;100.00
39739;BME280;25422;48.286;8.484;2023-04-20T09:07:58;93620.59;;;2.41;100.00
39739;BME280;25422;48.286;8.484;2023-04-20T09:10:25;93620.97;;;2.26;100.00
39739;BME280;25422;48.286;8.484;2023-04-20T09:12:51;93613.00;;;2.39;100.00
39739;BME280;25422;48.286;8.484;2023-04-20T09:15:27;93619.63;;;2.32;100.00
39739;BME280;25422;48.286;8.484;2023-04-20T09:17:53;93616.81;;;2.35;100.00
39739;BME280;25422;48.286;8.484;2023-04-20T09:20:32;93607.66;;;2.21;100.00
39739;BME280;25422;48.286;8.484;2023-04-20T09:25:36;93613.28;;;2.56;100.00
39739;BME280;25422;48.286;8.484;2023-04-20T09:28:02;93610.41;;;2.49;100.00
39739;BME280;25422;48.286;8.484;2023-04-20T09:30:42;93606.19;;;2.38;100.00
39739;BME280;25422;48.286;8.484;2023-04-20T09:33:08;93605.25;;;2.49;100.00
39739;BME280;25422;48.286;8.484;2023-04-20T09:35:35;93596.56;;;2.69;100.00
39739;BME280;25422;48.286;8.484;2023-04-20T09:38:03;93594.91;;;3.08;100.00
39739;BME280;25422;48.286;8.484;2023-04-20T09:40:28;93592.06;;;3.11;100.00
39739;BME280;25422;48.286;8.484;2023-04-20T09:42:58;93595.03;;;3.26;100.00
39739;BME280;25422;48.286;8.484;2023-04-20T09:45:24;93586.91;;;3.48;100.00
39739;BME280;25422;48.286;8.484;2023-04-20T09:47:51;93580.88;;;3.67;100.00
39739;BME280;25422;48.286;8.484;2023-04-20T09:50:17;93583.69;;;3.84;100.00
39739;BME280;25422;48.286;8.484;2023-04-20T09:52:44;93575.81;;;4.03;100.00
39739;BME280;25422;48.286;8.484;2023-04-20T09:55:09;93573.78;;;4.43;100.00
39739;BME280;25422;48.286;8.484;2023-04-20T09:57:35;93572.38;;;4.85;100.00
39739;BME280;25422;48.286;8.484;2023-04-20T10:00:02;93570.00;;;4.92;100.00
39739;BME280;25422;48.286;8.484;2023-04-20T10:02:31;93566.25;;;4.86;100.00
39739;BME280;25422;48.286;8.484;2023-04-20T10:04:57;93561.88;;;4.86;100.00
39739;BME280;25422;48.286;8.484;2023-04-20T10:07:24;93562.50;;;5.06;100.00
39739;BME280;25422;48.286;8.484;2023-04-20T10:10:11;93569.75;;;5.21;100.00
39739;BME280;25422;48.286;8.484;2023-04-20T10:12:51;93557.97;;;5.61;100.00
39739;BME280;25422;48.286;8.484;2023-04-20T10:15:16;93558.53;;;6.07;100.00
39739;BME280;25422;48.286;8.484;2023-04-20T10:17:42;93548.94;;;5.73;100.00
39739;BME280;25422;48.286;8.484;2023-04-20T10:20:37;93551.41;;;6.10;100.00
39739;BME280;25422;48.286;8.484;2023-04-20T10:23:07;93561.13;;;6.16;100.00
39739;BME280;25422;48.286;8.484;2023-04-20T10:25:34;93548.53;;;5.86;100.00
39739;BME280;25422;48.286;8.484;2023-04-20T10:28:03;93549.75;;;6.00;100.00
39739;BME280;25422;48.286;8.484;2023-04-20T10:30:32;93548.81;;;6.18;100.00
39739;BME280;25422;48.286;8.484;2023-04-20T10:33:09;93546.56;;;6.15;100.00
39739;BME280;25422;48.286;8.484;2023-04-20T10:35:54;93546.31;;;5.65;100.00
39739;BME280;25422;48.286;8.484;2023-04-20T10:38:46;93548.94;;;5.73;100.00
39739;BME280;25422;48.286;8.484;2023-04-20T10:41:12;93553.94;;;5.06;100.00
39739;BME280;25422;48.286;8.484;2023-04-20T10:43:38;93568.97;;;5.02;100.00
39739;BME280;25422;48.286;8.484;2023-04-20T10:46:16;93558.53;;;4.58;100.00
39739;BME280;25422;48.286;8.484;2023-04-20T10:49:08;93564.69;;;4.57;100.00
39739;BME280;25422;48.286;8.484;2023-04-20T10:51:34;93568.19;;;4.48;100.00
39739;BME280;25422;48.286;8.484;2023-04-20T10:54:07;93568.53;;;4.35;100.00
39739;BME280;25422;48.286;8.484;2023-04-20T10:59:06;93571.59;;;4.20;100.00
39739;BME280;25422;48.286;8.484;2023-04-20T11:01:32;93568.28;;;4.10;100.00
39739;BME280;25422;48.286;8.484;2023-04-20T11:03:57;93571.00;;;4.09;100.00
39739;BME280;25422;48.286;8.484;2023-04-20T11:06:23;93571.41;;;3.86;100.00
39739;BME280;25422;48.286;8.484;2023-04-20T11:08:48;93573.75;;;4.07;100.00
39739;BME280;25422;48.286;8.484;2023-04-20T11:11:21;93561.94;;;4.41;100.00
39739;BME280;25422;48.286;8.484;2023-04-20T11:13:49;93548.03;;;4.42;100.00
39739;BME280;25422;48.286;8.484;2023-04-20T11:16:17;93537.38;;;4.45;100.00
39739;BME280;25422;48.286;8.484;2023-04-20T11:18:50;93538.72;;;4.67;100.00
39739;BME280;25422;48.286;8.484;2023-04-20T11:21:16;93536.56;;;4.80;100.00
39739;BME280;25422;48.286;8.484;2023-04-20T11:23:41;93541.66;;;4.90;100.00
39739;BME280;25422;48.286;8.484;2023-04-20T11:26:08;93549.44;;;4.54;100.00
39739;BME280;25422;48.286;8.484;2023-04-20T11:28:33;93538.44;;;4.52;100.00
39739;BME280;25422;48.286;8.484;2023-04-20T11:30:59;93548.56;;;4.45;100.00
39739;BME280;25422;48.286;8.484;2023-04-20T11:33:26;93540.59;;;4.83;100.00
39739;BME280;25422;48.286;8.484;2023-04-20T11:35:56;93536.19;;;4.75;100.00
39739;BME280;25422;48.286;8.484;2023-04-20T11:38:35;93526.72;;;5.10;100.00
39739;BME280;25422;48.286;8.484;2023-04-20T11:41:01;93524.19;;;5.18;100.00
39739;BME280;25422;48.286;8.484;2023-04-20T11:43:31;93516.63;;;5.25;100.00
39739;BME280;25422;48.286;8.484;2023-04-20T11:45:57;93522.47;;;5.62;100.00
39739;BME280;25422;48.286;8.484;2023-04-20T11:48:23;93523.00;;;6.08;100.00
39739;BME280;25422;48.286;8.484;2023-04-20T11:50:48;93520.56;;;6.15;100.00
39739;BME280;25422;48.286;8.484;2023-04-20T11:53:14;93524.56;;;6.01;100.00
39739;BME280;25422;48.286;8.484;2023-04-20T11:55:40;93516.06;;;5.82;100.00
39739;BME280;25422;48.286;8.484;2023-04-20T11:58:06;93524.09;;;5.71;100.00
39739;BME280;25422;48.286;8.484;2023-04-20T12:00:33;93523.56;;;5.94;100.00
39739;BME280;25422;48.286;8.484;2023-04-20T12:02:58;93530.19;;;5.88;100.00
39739;BME280;25422;48.286;8.484;2023-04-20T12:05:26;93525.97;;;5.87;100.00
39739;BME280;25422;48.286;8.484;2023-04-20T12:07:51;93538.34;;;5.58;100.00
39739;BME280;25422;48.286;8.484;2023-04-20T12:10:17;93529.94;;;5.38;100.00
39739;BME280;25422;48.286;8.484;2023-04-20T12:12:42;93530.78;;;5.13;100.00
39739;BME280;25422;48.286;8.484;2023-04-20T12:15:08;93527.66;;;4.83;100.00
39739;BME280;25422;48.286;8.484;2023-04-20T12:17:33;93525.91;;;5.10;100.00
39739;BME280;25422;48.286;8.484;2023-04-20T12:19:59;93532.25;;;5.15;100.00
39739;BME280;25422;48.286;8.484;2023-04-20T12:22:24;93536.59;;;5.06;100.00
39739;BME280;25422;48.286;8.484;2023-04-20T12:24:50;93528.44;;;5.01;100.00
39739;BME280;25422;48.286;8.484;2023-04-20T12:27:15;93521.19;;;4.87;100.00
39739;BME280;25422;48.286;8.484;2023-04-20T12:29:41;93526.75;;;4.92;100.00
39739;BME280;25422;48.286;8.484;2023-04-20T12:32:06;93516.56;;;5.17;100.00
39739;BME280;25422;48.286;8.484;2023-04-20T12:34:32;93520.38;;;5.31;100.00
39739;BME280;25422;48.286;8.484;2023-04-20T12:36:57;93515.31;;;5.03;100.00
39739;BME280;25422;48.286;8.484;2023-04-20T12:39:22;93516.78;;;5.05;100.00
39739;BME280;25422;48.286;8.484;2023-04-20T12:41:48;93525.16;;;5.17;100.00
39739;BME280;25422;48.286;8.484;2023-04-20T12:44:14;93534.25;;;4.95;100.00
39739;BME280;25422;48.286;8.484;2023-04-20T12:46:39;93539.28;;;4.79;100.00
39739;BME280;25422;48.286;8.484;2023-04-20T12:49:05;93546.53;;;4.57;100.00
39739;BME280;25422;48.286;8.484;2023-04-20T12:51:30;93538.56;;;4.32;100.00
39739;BME280;25422;48.286;8.484;2023-04-20T12:53:56;93525.47;;;4.96;100.00
39739;BME280;25422;48.286;8.484;2023-04-20T12:56:21;93526.94;;;5.17;100.00
39739;BME280;25422;48.286;8.484;2023-04-20T12:58:47;93529.56;;;5.51;100.00
39739;BME280;25422;48.286;8.484;2023-04-20T13:01:12;93528.59;;;5.00;100.00
39739;BME280;25422;48.286;8.484;2023-04-20T13:03:37;93513.94;;;4.90;100.00
39739;BME280;25422;48.286;8.484;2023-04-20T13:06:03;93521.50;;;5.02;100.00
39739;BME280;25422;48.286;8.484;2023-04-20T13:08:29;93519.81;;;4.93;100.00
39739;BME280;25422;48.286;8.484;2023-04-20T13:10:55;93517.50;;;4.89;100.00
39739;BME280;25422;48.286;8.484;2023-04-20T13:13:20;93516.94;;;4.78;100.00
39739;BME280;25422;48.286;8.484;2023-04-20T13:15:46;93522.53;;;4.29;100.00